Sioux Lookout Airport
CYXL : now visible

Airfield :











YOU CAN JOIN US ON...

 
LOGIN :

Register | Disclaimer

   EN    FR    IT 

 









Legend :    VFR   Marginal VFR   IFR   Intensive IFR   Very Intensive IFR
Visi :
Ceiling :
>= 8 km
>= 3000ft
5 to 8 km
1000 to 3000 ft
1500m to 5 km
500 to 1000 ft
800 to 1500m
200 to 500 ft
< 800m
< 200 ft
Symbols :   Thunderstorms  Fog  Heavy snow  Heavy precipitations  Wind > 20 kt






- Airport Elevation : 1258 ft
- IATA code : YXL


CYXL - Sioux Lookout

CURRENT METAR :
  • 130400Z VRB02KT 15SM OVC120 M20/M23 A3010 RMK AC8 SLP242

EXPIRED METARs :
  • 130300Z 00000KT 15SM BKN120 BKN150 M22/M25 A3010 RMK AC5AC2 SLP245

TAF TAF CYXL
Valid from the 13 at 02:00 until the 13 at 14:00 UTC


130138Z 1302/1314 VRB03KT P6SM SCT080 BKN120
FM130700 VRB03KT P6SM SCT020 BKN040 OVC080
TEMPO 1307/1310 BKN020 OVC040
FM131000 VRB03KT P6SM SCT015 OVC025
TEMPO 1310/1314 5SM -SN OVC015 RMK NXT FCST BY 130800Z



MET'MAP, your aeronautical weather chart ! - Copyright ORBIFLY December 2007 - Disclaimer

ORBIFLY MET'MAP TEAM :

Programming & Development : Alexandra Zaïnal
Concept & original design : Baudouin d'Aumeries
Assistance for programming : Marc-Olivier Méhu
Technical & hardware support : Manuel Goepfert

Contact : metmap@orbifly.com




SOURCES & CREDITS :

   NOAA       Earth
Advisory